createdAt,value
2022-11-15T04:45:31.360Z,9.20
2022-11-15T04:47:58.292Z,9.30
2022-11-15T04:50:25.369Z,9.40
2022-11-15T04:52:53.280Z,9.40
2022-11-15T04:55:20.299Z,9.40
2022-11-15T04:57:47.277Z,9.40
2022-11-15T05:00:16.692Z,9.40
2022-11-15T05:03:02.217Z,9.40
2022-11-15T05:05:29.136Z,9.40
2022-11-15T05:07:56.104Z,9.30
2022-11-15T05:10:23.096Z,9.40
2022-11-15T05:12:50.097Z,9.40
2022-11-15T05:15:17.087Z,9.40
2022-11-15T05:17:44.016Z,9.40
2022-11-15T05:20:11.578Z,9.40
2022-11-15T05:22:38.870Z,9.40
2022-11-15T05:25:06.182Z,9.30
2022-11-15T05:27:33.739Z,9.30
2022-11-15T05:30:00.699Z,9.20
2022-11-15T05:32:28.404Z,9.20
2022-11-15T05:34:55.866Z,9.20
2022-11-15T05:37:22.911Z,9.20
2022-11-15T05:39:49.856Z,9.30
2022-11-15T05:42:17.076Z,9.30
2022-11-15T05:44:46.451Z,9.20
2022-11-15T05:47:16.996Z,9.20
2022-11-15T05:49:45.009Z,9.20
2022-11-15T05:52:13.556Z,9.20
2022-11-15T05:54:40.741Z,9.20
2022-11-15T05:57:07.701Z,9.20
2022-11-15T05:59:35.503Z,9.10
2022-11-15T06:02:02.580Z,9.20
2022-11-15T06:04:29.550Z,9.10
2022-11-15T06:06:56.650Z,9.10
2022-11-15T06:09:23.776Z,9.20
2022-11-15T06:11:50.896Z,9.20
2022-11-15T06:14:17.888Z,9.20
2022-11-15T06:16:44.873Z,9.10
2022-11-15T06:19:11.831Z,9.20
2022-11-15T06:21:38.776Z,9.20
2022-11-15T06:24:06.209Z,9.20
2022-11-15T06:26:33.180Z,9.20
2022-11-15T06:29:00.193Z,9.20
2022-11-15T06:31:27.125Z,9.10
2022-11-15T06:33:54.106Z,9.10
2022-11-15T06:36:21.705Z,9.20
2022-11-15T06:38:48.751Z,9.20
2022-11-15T06:41:15.848Z,9.30
2022-11-15T06:43:42.924Z,9.10
2022-11-15T06:46:10.294Z,9.20
2022-11-15T06:48:37.288Z,9.20
2022-11-15T06:51:05.086Z,9.20
2022-11-15T06:53:33.081Z,9.30
2022-11-15T06:56:04.120Z,9.30
2022-11-15T06:58:31.413Z,9.30
2022-11-15T07:01:01.819Z,9.40
2022-11-15T07:03:29.180Z,9.30
2022-11-15T07:05:58.510Z,9.50
2022-11-15T07:08:29.290Z,9.50
2022-11-15T07:10:59.496Z,9.50
2022-11-15T07:13:26.935Z,9.50
2022-11-15T07:15:53.993Z,9.70
2022-11-15T07:18:21.061Z,9.70
2022-11-15T07:20:48.033Z,9.80
2022-11-15T07:23:14.948Z,9.70
2022-11-15T07:25:42.257Z,9.70
2022-11-15T07:28:09.364Z,9.70
2022-11-15T07:30:38.968Z,9.70
2022-11-15T07:33:09.529Z,9.70
2022-11-15T07:35:36.516Z,9.80
2022-11-15T07:38:03.864Z,9.80
2022-11-15T07:40:32.852Z,9.90
2022-11-15T07:43:03.663Z,10.00
2022-11-15T07:45:30.885Z,10.30
2022-11-15T07:47:57.896Z,10.20
2022-11-15T07:50:25.037Z,10.20
2022-11-15T07:52:56.294Z,10.30
2022-11-15T07:55:23.919Z,10.30
2022-11-15T07:57:50.904Z,10.40
2022-11-15T08:00:18.478Z,10.40
2022-11-15T08:02:45.655Z,10.40
2022-11-15T08:05:13.124Z,10.40
2022-11-15T08:07:41.117Z,10.40
2022-11-15T08:10:08.904Z,10.50
2022-11-15T08:12:36.059Z,10.50
2022-11-15T08:15:03.924Z,10.40
2022-11-15T08:17:33.729Z,10.40
2022-11-15T08:20:00.713Z,10.50
2022-11-15T08:22:27.971Z,10.60
2022-11-15T08:24:54.934Z,10.40
2022-11-15T08:27:22.111Z,10.50
2022-11-15T08:29:49.993Z,10.50
2022-11-15T08:32:16.919Z,10.50
2022-11-15T08:34:43.870Z,10.50
2022-11-15T08:37:10.803Z,10.50
2022-11-15T08:39:38.861Z,10.60
2022-11-15T08:42:05.808Z,10.70
2022-11-15T08:44:32.777Z,10.70
2022-11-15T08:46:59.719Z,10.70
2022-11-15T08:49:26.735Z,10.80
2022-11-15T08:51:53.680Z,10.90
2022-11-15T08:54:20.711Z,11.00
2022-11-15T08:56:47.652Z,11.00
2022-11-15T08:59:14.653Z,11.10
2022-11-15T09:01:41.640Z,11.10
2022-11-15T09:04:08.629Z,11.10
2022-11-15T09:06:38.680Z,11.20
2022-11-15T09:09:09.170Z,11.20
2022-11-15T09:11:36.197Z,11.30
2022-11-15T09:14:03.213Z,11.30
2022-11-15T09:16:31.578Z,11.40
2022-11-15T09:18:58.559Z,11.40
2022-11-15T09:21:25.524Z,11.50
2022-11-15T09:23:53.078Z,11.50
2022-11-15T09:26:20.029Z,11.60
2022-11-15T09:28:47.171Z,11.70
2022-11-15T09:31:18.007Z,11.70
2022-11-15T09:33:49.070Z,11.60
2022-11-15T09:36:16.073Z,11.70
2022-11-15T09:38:43.038Z,11.70
2022-11-15T09:41:12.748Z,11.70
2022-11-15T09:43:54.246Z,11.70
2022-11-15T09:46:21.171Z,11.70
2022-11-15T09:48:54.002Z,11.80
2022-11-15T09:51:23.709Z,11.80
2022-11-15T09:57:04.738Z,11.90
2022-11-15T09:59:50.479Z,11.90
2022-11-15T10:02:17.422Z,11.90
2022-11-15T10:04:44.580Z,12.00
2022-11-15T10:07:17.243Z,12.00
2022-11-15T10:09:50.123Z,12.00
2022-11-15T10:12:17.743Z,12.10
2022-11-15T10:14:50.300Z,12.10
2022-11-15T10:17:34.879Z,12.10
2022-11-15T10:20:10.808Z,12.10
2022-11-15T10:22:42.368Z,12.20
2022-11-15T10:25:09.376Z,12.20
2022-11-15T10:27:36.490Z,12.20
2022-11-15T10:30:05.029Z,12.30
2022-11-15T10:32:33.920Z,12.30
2022-11-15T10:35:16.446Z,12.30
2022-11-15T10:37:43.413Z,12.40
2022-11-15T10:40:16.420Z,12.40
2022-11-15T10:42:43.480Z,12.40
2022-11-15T10:45:23.935Z,12.40
2022-11-15T10:47:51.163Z,12.50
2022-11-15T10:50:33.554Z,12.50
2022-11-15T10:53:03.565Z,12.50
2022-11-15T10:55:31.680Z,12.40
2022-11-15T10:58:21.652Z,12.40
2022-11-15T11:00:48.625Z,12.40
2022-11-15T11:03:29.312Z,12.40
2022-11-15T11:06:06.920Z,12.40
2022-11-15T11:08:35.020Z,12.40
2022-11-15T11:11:03.846Z,12.50
2022-11-15T11:13:38.432Z,12.50
2022-11-15T11:16:14.374Z,12.50
2022-11-15T11:18:44.136Z,12.60
2022-11-15T11:21:14.035Z,12.60
2022-11-15T11:23:52.896Z,12.60
2022-11-15T11:26:40.089Z,12.60
2022-11-15T11:29:07.508Z,12.60
2022-11-15T11:31:48.976Z,12.70
2022-11-15T11:34:20.701Z,12.70
2022-11-15T11:37:13.563Z,12.70
2022-11-15T11:39:53.509Z,12.70
2022-11-15T11:42:46.372Z,12.70
2022-11-15T11:45:19.433Z,12.70
2022-11-15T11:47:52.830Z,12.70
2022-11-15T11:50:21.508Z,12.70
2022-11-15T11:53:07.060Z,12.70
2022-11-15T11:55:39.515Z,12.70
2022-11-15T11:58:12.355Z,12.70
2022-11-15T12:00:41.029Z,12.80
2022-11-15T12:03:30.968Z,12.80
2022-11-15T12:06:02.777Z,12.80
2022-11-15T12:08:55.820Z,12.90
2022-11-15T12:11:37.996Z,12.90
2022-11-15T12:14:10.161Z,12.90
2022-11-15T12:16:38.687Z,12.90
2022-11-15T12:19:05.869Z,13.10
2022-11-15T12:21:40.488Z,12.90
2022-11-15T12:24:16.492Z,12.90
2022-11-15T12:27:24.922Z,13.00
2022-11-15T12:30:01.911Z,13.00
2022-11-15T12:32:28.840Z,13.00
2022-11-15T12:34:56.559Z,13.00
2022-11-15T12:37:48.196Z,13.00
2022-11-15T12:40:23.229Z,13.00
2022-11-15T12:43:05.270Z,13.00
2022-11-15T12:45:36.477Z,13.10
2022-11-15T12:48:35.716Z,13.10
2022-11-15T12:51:03.137Z,13.10
2022-11-15T12:53:31.233Z,13.10
2022-11-15T12:56:03.949Z,13.10
2022-11-15T12:58:49.542Z,13.20
2022-11-15T13:01:32.106Z,13.10
2022-11-15T13:04:17.720Z,13.20
2022-11-15T13:07:08.521Z,13.20
2022-11-15T13:09:38.345Z,13.20
2022-11-15T13:12:15.397Z,13.20
2022-11-15T13:14:49.815Z,13.20
2022-11-15T13:17:19.497Z,13.20
2022-11-15T13:19:47.454Z,13.20
2022-11-15T13:22:33.824Z,13.20
2022-11-15T13:25:02.331Z,13.20
2022-11-15T13:27:29.634Z,13.20
2022-11-15T13:29:56.636Z,13.30
2022-11-15T13:32:23.668Z,13.30
2022-11-15T13:34:53.669Z,13.30
2022-11-15T13:37:20.673Z,13.30
2022-11-15T13:39:48.487Z,13.30
2022-11-15T13:42:16.014Z,13.30
2022-11-15T13:44:56.200Z,13.30
2022-11-15T13:47:27.746Z,13.30
2022-11-15T13:49:54.755Z,13.30
2022-11-15T13:52:21.835Z,13.30
2022-11-15T13:54:57.024Z,13.30
2022-11-15T13:57:26.084Z,13.40
2022-11-15T13:59:55.604Z,13.30
2022-11-15T14:02:26.662Z,13.30
2022-11-15T14:04:57.888Z,13.40
2022-11-15T14:07:26.588Z,13.30
2022-11-15T14:09:53.746Z,13.30
2022-11-15T14:12:24.743Z,13.30
2022-11-15T14:14:51.939Z,13.30
2022-11-15T14:17:21.255Z,13.40
2022-11-15T14:19:48.252Z,13.40
2022-11-15T14:22:27.273Z,13.40
2022-11-15T14:25:12.841Z,13.30
2022-11-15T14:27:40.270Z,13.30
2022-11-15T14:30:13.257Z,13.30
2022-11-15T14:32:48.712Z,13.30
2022-11-15T14:35:17.456Z,13.30
2022-11-15T14:37:44.659Z,13.20
2022-11-15T14:40:14.771Z,13.20
2022-11-15T14:42:41.816Z,13.20
2022-11-15T14:45:19.388Z,13.20
2022-11-15T14:47:46.590Z,13.20
2022-11-15T14:50:17.580Z,13.20
2022-11-15T14:52:44.658Z,13.20
2022-11-15T14:55:32.987Z,13.30
2022-11-15T14:58:00.027Z,13.30
2022-11-15T15:00:30.858Z,13.30
2022-11-15T15:03:01.261Z,13.30
2022-11-15T15:05:34.243Z,13.30
2022-11-15T15:08:01.650Z,13.30
2022-11-15T15:10:41.126Z,13.30
2022-11-15T15:13:17.755Z,13.20
2022-11-15T15:15:45.015Z,13.20
2022-11-15T15:18:12.328Z,13.20
2022-11-15T15:20:40.508Z,13.20
2022-11-15T15:23:15.388Z,13.20
2022-11-15T15:25:42.973Z,13.10
2022-11-15T15:28:10.318Z,13.20
2022-11-15T15:30:37.241Z,13.20
2022-11-15T15:33:04.190Z,13.20
2022-11-15T15:35:33.051Z,13.20
2022-11-15T15:38:00.237Z,13.20
2022-11-15T15:40:28.588Z,13.20
2022-11-15T15:42:55.575Z,13.10
2022-11-15T15:45:22.725Z,13.10
2022-11-15T15:47:50.518Z,13.00
2022-11-15T15:50:24.851Z,13.00
2022-11-15T15:52:52.598Z,13.00
2022-11-15T15:55:19.992Z,13.00
2022-11-15T15:57:47.391Z,12.90
2022-11-15T16:00:14.884Z,12.90
2022-11-15T16:02:42.098Z,12.90
2022-11-15T16:05:10.093Z,13.00
2022-11-15T16:07:37.199Z,13.00
2022-11-15T16:10:16.580Z,13.00
2022-11-15T16:12:43.534Z,12.90
2022-11-15T16:15:10.685Z,12.90
2022-11-15T16:18:00.679Z,12.90
2022-11-15T16:20:32.405Z,12.90
2022-11-15T16:23:04.375Z,12.80
2022-11-15T16:25:38.014Z,12.90
2022-11-15T16:28:04.978Z,12.90
2022-11-15T16:30:32.002Z,12.90
2022-11-15T16:32:59.019Z,12.80
2022-11-15T16:35:26.023Z,12.80
2022-11-15T16:37:52.953Z,12.80
2022-11-15T16:40:25.740Z,12.90
2022-11-15T16:42:52.740Z,12.80
2022-11-15T16:45:19.774Z,12.80
2022-11-15T16:47:46.715Z,12.90
2022-11-15T16:50:24.026Z,13.00
2022-11-15T16:52:51.917Z,12.90
2022-11-15T16:55:19.505Z,12.90
2022-11-15T16:57:46.521Z,12.80
2022-11-15T17:00:16.623Z,12.80
2022-11-15T17:02:44.273Z,12.90
2022-11-15T17:05:14.731Z,12.90
2022-11-15T17:07:46.755Z,13.10
2022-11-15T17:10:13.759Z,12.90
2022-11-15T17:12:40.692Z,12.90
2022-11-15T17:15:07.950Z,12.90
2022-11-15T17:17:34.930Z,12.80
2022-11-15T17:20:04.898Z,12.80
2022-11-15T17:22:32.408Z,12.80
2022-11-15T17:24:59.328Z,12.80
2022-11-15T17:27:26.316Z,12.80
2022-11-15T17:29:53.253Z,12.80
2022-11-15T17:32:20.187Z,12.80
2022-11-15T17:34:47.112Z,12.70
2022-11-15T17:37:14.274Z,12.70
2022-11-15T17:39:41.262Z,12.70
2022-11-15T17:42:08.195Z,12.80
2022-11-15T17:44:35.133Z,12.80
2022-11-15T17:47:02.052Z,12.80
2022-11-15T17:49:29.053Z,12.80
2022-11-15T17:51:55.969Z,12.90
2022-11-15T17:54:22.941Z,12.90
2022-11-15T17:56:49.899Z,12.90
2022-11-15T17:59:20.253Z,12.90
2022-11-15T18:01:48.650Z,12.90
2022-11-15T18:04:15.668Z,12.80
2022-11-15T18:06:42.962Z,12.80
2022-11-15T18:09:10.029Z,12.80
2022-11-15T18:11:41.509Z,12.80
2022-11-15T18:14:09.247Z,12.70
2022-11-15T18:16:36.846Z,12.70
2022-11-15T18:19:11.434Z,12.70
2022-11-15T18:21:56.092Z,12.70
2022-11-15T18:24:24.026Z,12.70
2022-11-15T18:26:51.478Z,12.70
2022-11-15T18:29:19.623Z,12.80
2022-11-15T18:31:50.076Z,13.00
2022-11-15T18:34:17.648Z,12.90
2022-11-15T18:36:44.673Z,12.90
2022-11-15T18:39:16.369Z,12.90
2022-11-15T18:41:44.140Z,12.90
2022-11-15T18:44:11.125Z,12.90
2022-11-15T18:46:39.241Z,12.90
2022-11-15T18:49:07.646Z,12.80
2022-11-15T18:51:35.385Z,12.80
2022-11-15T18:54:02.913Z,12.80
2022-11-15T18:56:30.858Z,12.80
2022-11-15T18:58:59.396Z,12.90
2022-11-15T19:01:27.865Z,12.90
2022-11-15T19:03:56.314Z,12.90
2022-11-15T19:06:24.823Z,13.00
2022-11-15T19:08:56.479Z,13.20
2022-11-15T19:11:25.551Z,12.90
2022-11-15T19:13:53.038Z,12.90
2022-11-15T19:16:19.994Z,12.90
2022-11-15T19:18:46.926Z,12.80
2022-11-15T19:21:15.998Z,12.80
2022-11-15T19:23:43.296Z,12.80
2022-11-15T19:26:11.222Z,12.80
2022-11-15T19:28:38.408Z,12.70
2022-11-15T19:31:07.826Z,13.00
2022-11-15T19:33:35.514Z,12.80
2022-11-15T19:36:03.930Z,12.80
2022-11-15T19:38:31.962Z,12.70
2022-11-15T19:40:59.620Z,12.70
2022-11-15T19:43:26.972Z,12.70
2022-11-15T19:46:02.089Z,12.70
2022-11-15T19:48:30.289Z,12.70
2022-11-15T19:51:01.689Z,12.60
2022-11-15T19:53:33.466Z,12.60
2022-11-15T19:56:03.083Z,12.60
2022-11-15T19:58:30.533Z,12.60
2022-11-15T20:01:05.201Z,12.60
2022-11-15T20:03:33.242Z,12.50
2022-11-15T20:06:07.343Z,12.50
2022-11-15T20:08:34.884Z,12.60
2022-11-15T20:11:02.869Z,12.60
2022-11-15T20:13:30.525Z,12.60
2022-11-15T20:15:57.998Z,12.50
2022-11-15T20:18:26.080Z,12.60
2022-11-15T20:20:53.303Z,12.60
2022-11-15T20:23:20.239Z,12.60
2022-11-15T20:25:47.704Z,12.60
2022-11-15T20:28:15.701Z,12.60
2022-11-15T20:30:44.351Z,12.70
2022-11-15T20:33:11.936Z,12.70
2022-11-15T20:35:38.857Z,12.70
2022-11-15T20:38:08.615Z,12.80
2022-11-15T20:40:35.601Z,12.60
2022-11-15T20:43:02.745Z,12.60
2022-11-15T20:45:29.681Z,12.50
2022-11-15T20:47:57.091Z,12.50
2022-11-15T20:50:41.743Z,12.50
2022-11-15T20:53:10.638Z,12.50
2022-11-15T20:55:41.354Z,12.50
2022-11-15T20:58:08.912Z,12.50
2022-11-15T21:00:36.938Z,12.50
2022-11-15T21:03:06.726Z,12.50
2022-11-15T21:05:41.312Z,12.50
2022-11-15T21:08:08.900Z,12.50
2022-11-15T21:10:54.631Z,12.50
2022-11-15T21:13:21.615Z,12.50
2022-11-15T21:15:48.635Z,12.50
2022-11-15T21:18:15.607Z,12.50
2022-11-15T21:20:42.691Z,12.40
2022-11-15T21:23:09.780Z,12.40
2022-11-15T21:25:36.742Z,12.40
2022-11-15T21:28:03.842Z,12.40
2022-11-15T21:30:30.871Z,12.50
2022-11-15T21:32:57.834Z,12.50
2022-11-15T21:35:24.892Z,12.50
2022-11-15T21:37:56.347Z,12.50
2022-11-15T21:40:24.369Z,12.50
2022-11-15T21:42:51.380Z,12.50
2022-11-15T21:45:18.311Z,12.50
2022-11-15T21:47:46.559Z,12.50
2022-11-15T21:50:14.048Z,12.50
2022-11-15T21:52:41.187Z,12.60
2022-11-15T21:55:08.647Z,12.60
2022-11-15T21:57:35.602Z,12.70
2022-11-15T22:00:21.007Z,12.70
2022-11-15T22:02:47.943Z,12.70
2022-11-15T22:05:15.035Z,12.70
2022-11-15T22:07:41.985Z,12.70
2022-11-15T22:10:09.137Z,12.70
2022-11-15T22:12:36.472Z,12.70
2022-11-15T22:15:03.560Z,12.70
2022-11-15T22:17:50.528Z,12.80
2022-11-15T22:20:43.107Z,12.80
2022-11-15T22:23:05.025Z,12.70
2022-11-15T22:25:32.320Z,12.80
2022-11-15T22:27:59.266Z,12.80
2022-11-15T22:30:26.259Z,12.80
2022-11-15T22:32:53.228Z,12.80
2022-11-15T22:35:20.166Z,12.70
2022-11-15T22:37:47.140Z,12.70
2022-11-15T22:40:14.087Z,12.70
2022-11-15T22:42:41.031Z,12.70
2022-11-15T22:45:08.122Z,12.70
2022-11-15T22:47:35.065Z,12.70
2022-11-15T22:50:02.116Z,12.70
2022-11-15T22:52:29.057Z,12.70
2022-11-15T22:54:55.992Z,12.70
2022-11-15T22:57:22.936Z,12.70
2022-11-15T22:59:49.898Z,12.70
2022-11-15T23:02:16.929Z,12.70
2022-11-15T23:04:44.829Z,12.70
2022-11-15T23:07:12.000Z,12.80
2022-11-15T23:09:39.020Z,12.80
2022-11-15T23:12:24.997Z,12.90
2022-11-15T23:14:51.955Z,12.90
2022-11-15T23:17:18.888Z,12.80
2022-11-15T23:19:45.965Z,12.80
2022-11-15T23:22:31.372Z,12.70
2022-11-15T23:24:59.571Z,12.70
2022-11-15T23:27:27.366Z,12.70
2022-11-15T23:30:12.883Z,12.70
2022-11-15T23:32:58.215Z,12.70
2022-11-15T23:35:25.213Z,12.80
2022-11-15T23:37:52.189Z,12.70
2022-11-15T23:40:19.340Z,12.70
2022-11-15T23:42:46.288Z,12.70
2022-11-15T23:45:13.230Z,12.70
2022-11-15T23:47:40.199Z,12.70
2022-11-15T23:50:07.636Z,12.70
2022-11-15T23:52:34.786Z,12.70
2022-11-15T23:55:01.860Z,12.70
2022-11-15T23:57:28.933Z,12.70
2022-11-15T23:59:55.903Z,12.70
